Time;durP1;ratioP1;P1;durP2;ratioP2;P2;SDS_P1;SDS_P2;PMS_P1;PMS_P2;Temp;Humidity;BMP_temperature;BMP_pressure;BME280_temperature;BME280_humidity;BME280_pressure;Samples;Min_cycle;Max_cycle;Signal;HPM_P1;HPM_P2
2022/05/29 00:02:20;;;;;;;2.50;1.20;;;;;;;10.73;99.80;100754.38;5074723;28;20845;-68
2022/05/29 00:04:46;;;;;;;5.40;1.70;;;;;;;10.78;99.51;100746.16;5074749;28;21002;-69
2022/05/29 00:07:16;;;;;;;3.60;1.03;;;;;;;10.75;99.12;100742.13;5075024;28;20456;-70
2022/05/29 00:09:47;;;;;;;4.50;1.27;;;;;;;10.79;99.46;100745.03;5075034;28;20437;-72
2022/05/29 00:12:14;;;;;;;2.60;1.27;;;;;;;10.81;99.74;100743.66;5074985;28;20426;-69
2022/05/29 00:14:42;;;;;;;1.33;0.83;;;;;;;10.81;99.74;100743.66;5074604;28;20994;-69
2022/05/29 00:17:09;;;;;;;2.27;1.10;;;;;;;10.86;99.05;100740.84;5074928;28;20824;-69
2022/05/29 00:19:37;;;;;;;3.73;1.77;;;;;;;10.85;98.24;100738.44;5074894;28;20491;-70
2022/05/29 00:22:04;;;;;;;14.13;1.40;;;;;;;10.77;96.29;100741.84;5074737;28;20438;-69
2022/05/29 00:24:31;;;;;;;4.40;1.37;;;;;;;10.75;97.06;100734.00;5074312;28;20457;-69
2022/05/29 00:26:57;;;;;;;2.00;0.97;;;;;;;10.75;96.28;100736.72;5073824;28;20967;-70
2022/05/29 00:29:24;;;;;;;2.57;1.20;;;;;;;10.74;95.88;100723.47;5074675;28;20441;-70
2022/05/29 00:31:50;;;;;;;4.57;1.07;;;;;;;10.76;95.89;100735.63;5074557;28;20795;-70
2022/05/29 00:34:17;;;;;;;1.10;0.90;;;;;;;10.74;95.39;100729.69;5074511;28;20461;-70
2022/05/29 00:36:44;;;;;;;3.23;1.13;;;;;;;10.76;93.77;100730.22;5074613;28;20448;-72
2022/05/29 00:39:14;;;;;;;2.00;1.10;;;;;;;10.77;94.04;100726.38;5074528;28;20480;-70
2022/05/29 00:41:40;;;;;;;1.70;1.10;;;;;;;10.78;94.14;100730.69;5074439;28;20441;-70
2022/05/29 00:44:12;;;;;;;2.30;1.03;;;;;;;10.82;92.88;100726.28;5074268;28;20489;-71
2022/05/29 00:46:40;;;;;;;1.80;1.10;;;;;;;10.85;92.14;100722.19;5074298;28;20433;-71
2022/05/29 00:49:07;;;;;;;2.10;1.27;;;;;;;10.79;93.03;100726.88;5074251;28;20821;-70
2022/05/29 00:51:35;;;;;;;2.73;0.90;;;;;;;10.81;92.03;100721.97;5074163;28;20453;-70
2022/05/29 00:54:06;;;;;;;2.00;1.20;;;;;;;10.84;90.24;100721.38;5074093;28;20556;-70
2022/05/29 00:56:34;;;;;;;1.47;0.73;;;;;;;10.79;90.77;100712.53;5074154;28;20437;-70
2022/05/29 00:59:02;;;;;;;2.07;1.03;;;;;;;10.85;89.27;100706.75;5074058;28;20567;-70
2022/05/29 01:01:29;;;;;;;1.50;1.17;;;;;;;10.84;88.51;100715.16;5073790;28;20461;-70
2022/05/29 01:03:55;;;;;;;2.30;1.20;;;;;;;10.83;88.60;100717.06;5073838;28;20515;-70
2022/05/29 01:06:22;;;;;;;2.13;1.20;;;;;;;10.77;89.26;100715.56;5073969;28;20449;-69
2022/05/29 01:08:49;;;;;;;1.83;0.90;;;;;;;10.79;88.78;100707.91;5073900;28;20437;-70
2022/05/29 01:11:28;;;;;;;5.33;1.03;;;;;;;10.76;89.40;100708.53;5073877;28;20441;-69
2022/05/29 01:14:03;;;;;;;1.27;0.90;;;;;;;10.80;88.51;100714.97;5073739;28;20479;-69
2022/05/29 01:16:41;;;;;;;1.53;1.00;;;;;;;10.81;88.44;100710.34;5073791;28;20433;-68
2022/05/29 01:19:36;;;;;;;1.90;1.07;;;;;;;10.80;88.45;100712.25;5073756;28;20417;-70
2022/05/29 01:22:17;;;;;;;5.80;1.20;;;;;;;10.79;89.33;100707.91;5073687;28;20426;-70
2022/05/29 01:25:16;;;;;;;10.47;1.20;;;;;;;10.82;89.84;100709.25;5073645;28;20468;-69
2022/05/29 01:28:05;;;;;;;6.40;1.67;;;;;;;10.79;89.65;100705.19;5073751;28;20768;-72
2022/05/29 01:30:39;;;;;;;1.37;0.70;;;;;;;10.82;89.24;100696.50;5073557;28;20422;-69
2022/05/29 01:33:18;;;;;;;2.00;1.00;;;;;;;10.90;89.22;100705.03;5073507;28;20503;-71
2022/05/29 01:35:50;;;;;;;2.10;0.90;;;;;;;10.86;89.55;100694.78;5073631;28;20472;-69
2022/05/29 01:38:22;;;;;;;2.10;1.13;;;;;;;10.89;90.54;100698.00;5073354;28;20421;-68
2022/05/29 01:40:53;;;;;;;2.00;1.00;;;;;;;10.92;90.44;100695.47;5073533;28;20410;-69
2022/05/29 01:43:26;;;;;;;8.20;1.07;;;;;;;10.98;88.23;100698.88;5073398;28;20465;-70
2022/05/29 01:45:57;;;;;;;0.90;0.53;;;;;;;10.96;88.41;100691.06;5073395;28;20472;-71
2022/05/29 01:48:34;;;;;;;1.10;0.70;;;;;;;10.97;90.44;100695.38;5073523;28;20426;-70
2022/05/29 01:51:08;;;;;;;2.47;1.07;;;;;;;11.03;87.37;100691.50;5073329;28;20437;-70
2022/05/29 01:53:38;;;;;;;1.70;0.93;;;;;;;11.00;87.82;100696.69;5073393;28;20418;-70
2022/05/29 01:56:11;;;;;;;4.13;0.80;;;;;;;11.00;87.70;100694.00;5072924;28;20797;-70
2022/05/29 01:58:43;;;;;;;4.63;1.00;;;;;;;10.93;87.64;100688.94;5073260;28;20433;-70
2022/05/29 02:01:12;;;;;;;3.73;1.90;;;;;;;10.94;87.38;100695.22;5073146;28;20429;-69
2022/05/29 02:03:43;;;;;;;7.10;1.20;;;;;;;10.90;88.42;100688.78;5073094;28;20480;-70
2022/05/29 02:06:13;;;;;;;4.20;1.07;;;;;;;10.89;87.53;100692.56;5073249;28;20555;-70
2022/05/29 02:08:46;;;;;;;1.50;1.03;;;;;;;10.82;87.65;100690.28;5073228;28;20440;-70
2022/05/29 02:11:18;;;;;;;1.00;0.70;;;;;;;10.84;87.14;100682.63;5073272;28;20425;-70
2022/05/29 02:13:50;;;;;;;3.03;0.93;;;;;;;10.84;86.65;100680.72;5072870;28;20829;-70
2022/05/29 02:16:21;;;;;;;5.77;1.13;;;;;;;10.89;86.17;100679.00;5072895;28;20908;-70
2022/05/29 02:18:51;;;;;;;1.67;0.97;;;;;;;10.90;86.49;100681.44;5073107;28;20430;-70
2022/05/29 02:21:22;;;;;;;7.40;1.13;;;;;;;10.89;86.47;100685.28;5073179;28;20457;-70
2022/05/29 02:23:51;;;;;;;0.80;0.63;;;;;;;10.93;86.40;100682.72;5072626;28;20469;-71
2022/05/29 02:26:21;;;;;;;1.93;1.03;;;;;;;10.91;87.42;100677.63;5073015;28;20827;-70
2022/05/29 02:28:54;;;;;;;5.77;1.13;;;;;;;10.94;88.29;100681.66;5073040;28;20432;-71
2022/05/29 02:31:36;;;;;;;2.07;1.30;;;;;;;10.95;87.87;100675.91;5073018;28;20432;-70
2022/05/29 02:34:09;;;;;;;3.00;1.00;;;;;;;10.98;86.34;100669.06;5072935;28;20473;-70
2022/05/29 02:36:41;;;;;;;1.83;1.10;;;;;;;10.94;86.63;100677.03;5072923;28;20855;-70
2022/05/29 02:39:29;;;;;;;1.27;0.83;;;;;;;10.90;87.79;100670.59;5072944;28;20817;-70
2022/05/29 02:42:09;;;;;;;1.80;1.20;;;;;;;10.90;88.01;100675.22;5055937;28;20950;-71
2022/05/29 02:44:43;;;;;;;3.03;1.50;;;;;;;10.86;86.80;100670.41;5079028;22;20483;-80
2022/05/29 02:47:24;;;;;;;2.30;1.07;;;;;;;10.88;86.50;100677.41;5057130;28;20439;-80
2022/05/29 02:52:23;;;;;;;2.70;1.10;;;;;;;10.79;86.75;100674.59;5054945;28;20515;-72
2022/05/29 02:54:49;;;;;;;5.10;1.30;;;;;;;10.77;88.33;100669.50;5056250;28;20473;-72
2022/05/29 02:57:15;;;;;;;1.00;0.70;;;;;;;10.79;88.18;100675.41;5056316;28;20445;-72
2022/05/29 02:59:48;;;;;;;1.63;1.20;;;;;;;10.84;86.88;100669.09;5056006;28;20995;-72
2022/05/29 03:02:24;;;;;;;2.30;1.27;;;;;;;10.81;86.55;100675.13;5055987;28;20773;-72
2022/05/29 03:04:56;;;;;;;3.00;1.07;;;;;;;10.76;87.16;100676.03;5056053;28;20482;-74
2022/05/29 03:07:31;;;;;;;4.37;1.30;;;;;;;10.75;87.29;100668.97;5056475;28;20541;-73
2022/05/29 03:10:07;;;;;;;0.87;0.77;;;;;;;10.76;87.22;100670.59;5056180;28;20429;-73
2022/05/29 03:12:55;;;;;;;4.97;0.90;;;;;;;10.80;87.23;100666.19;5056064;28;20419;-72
2022/05/29 03:15:32;;;;;;;3.27;1.20;;;;;;;10.83;87.67;100673.69;5055961;28;20488;-71
2022/05/29 03:18:16;;;;;;;2.30;1.13;;;;;;;10.85;86.92;100671.50;5056061;28;20426;-72
2022/05/29 03:20:51;;;;;;;1.33;1.03;;;;;;;10.88;87.09;100672.81;5055655;28;20505;-71
2022/05/29 03:23:24;;;;;;;2.43;1.20;;;;;;;10.84;87.84;100671.78;5055844;28;20465;-72
2022/05/29 03:25:55;;;;;;;1.83;1.27;;;;;;;10.88;88.14;100669.28;5055755;28;20485;-72
2022/05/29 03:28:27;;;;;;;2.40;1.17;;;;;;;10.95;88.62;100673.22;5055806;28;20537;-72
2022/05/29 03:31:00;;;;;;;2.70;0.73;;;;;;;10.98;88.53;100674.50;5055789;28;20426;-72
2022/05/29 03:33:27;;;;;;;8.60;1.57;;;;;;;11.02;87.91;100667.38;5055695;28;20426;-72
2022/05/29 03:36:06;;;;;;;1.73;0.80;;;;;;;11.01;88.41;100672.00;5055495;28;20481;-72
2022/05/29 03:38:33;;;;;;;4.50;1.10;;;;;;;11.03;88.84;100674.44;5055551;28;20465;-73
2022/05/29 03:41:00;;;;;;;0.90;0.73;;;;;;;10.99;88.68;100671.50;5055535;28;20434;-72
2022/05/29 03:43:27;;;;;;;3.83;1.40;;;;;;;10.97;88.32;100671.00;5055608;28;20490;-72
2022/05/29 03:45:53;;;;;;;3.83;1.40;;;;;;;11.02;87.98;100670.09;5055328;28;20466;-72
2022/05/29 03:48:21;;;;;;;6.77;0.97;;;;;;;11.08;88.39;100671.59;5055393;28;20474;-72
2022/05/29 03:50:47;;;;;;;1.60;0.90;;;;;;;11.09;87.52;100676.72;5054768;28;20450;-73
2022/05/29 03:53:14;;;;;;;2.80;1.50;;;;;;;11.05;88.24;100673.00;5054972;28;20963;-72
2022/05/29 03:55:40;;;;;;;4.23;1.50;;;;;;;11.08;88.18;100677.03;5055211;28;20524;-71
2022/05/29 03:58:07;;;;;;;4.20;1.40;;;;;;;11.09;87.46;100674.00;5055190;28;20465;-74
2022/05/29 04:00:33;;;;;;;2.57;1.17;;;;;;;11.11;87.21;100673.69;5054730;28;20819;-74
2022/05/29 04:03:01;;;;;;;3.17;1.60;;;;;;;11.17;87.54;100667.09;5055004;28;20445;-73
2022/05/29 04:05:29;;;;;;;2.60;1.20;;;;;;;11.10;86.96;100670.19;5055024;28;20470;-74
2022/05/29 04:13:27;;;;;;;5.23;1.07;;;;;;;11.15;88.17;100655.72;5054818;28;20402;-74
2022/05/29 04:15:53;;;;;;;3.80;1.77;;;;;;;11.12;88.48;100661.78;5054789;28;20470;-74
2022/05/29 04:18:21;;;;;;;1.70;1.00;;;;;;;11.17;87.30;100656.25;5054453;28;20768;-74
2022/05/29 04:20:51;;;;;;;2.50;1.40;;;;;;;11.16;88.06;100651.94;5054778;28;20481;-74
2022/05/29 04:23:18;;;;;;;6.70;1.33;;;;;;;11.16;88.12;100664.69;5054692;28;20478;-74
2022/05/29 04:25:44;;;;;;;1.63;1.00;;;;;;;11.17;88.73;100664.38;5054265;28;20976;-74
2022/05/29 04:28:11;;;;;;;2.07;1.37;;;;;;;11.21;89.26;100665.38;5054583;28;20481;-74
2022/05/29 04:30:37;;;;;;;1.83;1.00;;;;;;;11.32;88.71;100665.94;5054269;28;20850;-74
2022/05/29 04:33:04;;;;;;;1.27;1.17;;;;;;;11.39;88.54;100662.84;5054528;28;20438;-74
2022/05/29 04:35:35;;;;;;;4.23;1.70;;;;;;;11.44;88.23;100668.94;5054387;28;20462;-73
2022/05/29 04:38:04;;;;;;;2.30;1.53;;;;;;;11.47;87.78;100659.41;5054433;28;20427;-74
2022/05/29 04:40:31;;;;;;;3.50;1.30;;;;;;;11.51;87.72;100654.94;5054064;28;20500;-73
2022/05/29 04:42:57;;;;;;;2.40;1.30;;;;;;;11.47;86.74;100662.13;5053994;28;20503;-75
2022/05/29 04:45:24;;;;;;;2.07;1.20;;;;;;;11.44;87.74;100652.69;5054132;28;20520;-74
2022/05/29 04:47:50;;;;;;;1.60;1.10;;;;;;;11.49;87.59;100649.84;5054214;28;20438;-74
2022/05/29 04:50:19;;;;;;;2.20;1.33;;;;;;;11.54;87.60;100659.78;5053952;28;20438;-75
2022/05/29 04:52:45;;;;;;;2.07;1.03;;;;;;;11.59;87.59;100646.91;5054208;28;20808;-74
2022/05/29 04:55:13;;;;;;;1.80;1.03;;;;;;;11.67;87.17;100650.00;5053993;28;20462;-72
2022/05/29 04:57:39;;;;;;;10.90;1.27;;;;;;;11.74;86.94;100651.19;5054092;28;20457;-72
2022/05/29 05:00:07;;;;;;;2.17;1.30;;;;;;;11.81;86.37;100651.53;5053987;28;20450;-72
2022/05/29 05:02:33;;;;;;;3.30;1.33;;;;;;;11.77;86.34;100658.69;5053939;28;20450;-72
2022/05/29 05:05:00;;;;;;;1.20;0.57;;;;;;;11.82;86.38;100655.06;5053710;28;20485;-72
2022/05/29 05:07:26;;;;;;;5.93;1.37;;;;;;;11.91;85.49;100658.69;5053879;28;20438;-72
2022/05/29 05:09:53;;;;;;;1.87;1.20;;;;;;;11.94;86.20;100666.19;5053810;28;20442;-72
2022/05/29 05:12:21;;;;;;;6.20;1.20;;;;;;;11.98;86.89;100664.47;5053248;28;20442;-72
2022/05/29 05:14:47;;;;;;;10.03;1.27;;;;;;;11.99;86.00;100651.72;5053367;28;20975;-73
2022/05/29 05:17:14;;;;;;;1.70;1.20;;;;;;;11.99;86.39;100657.13;5053721;28;20442;-73
2022/05/29 05:19:40;;;;;;;2.20;1.30;;;;;;;12.04;85.40;100648.84;5053408;28;20939;-73
2022/05/29 05:22:09;;;;;;;2.20;1.30;;;;;;;12.03;86.05;100655.41;5053631;28;20492;-74
2022/05/29 05:24:38;;;;;;;1.40;1.20;;;;;;;12.07;85.86;100662.63;5053565;28;20873;-73
2022/05/29 05:27:05;;;;;;;1.33;0.80;;;;;;;11.99;86.09;100657.13;5053257;28;20434;-73
2022/05/29 05:29:33;;;;;;;3.43;1.60;;;;;;;12.00;85.63;100653.34;5053514;28;20496;-74
2022/05/29 05:32:00;;;;;;;2.27;1.10;;;;;;;11.88;85.50;100650.34;5053459;28;20484;-73
2022/05/29 05:34:28;;;;;;;1.77;1.00;;;;;;;11.89;85.54;100657.38;5053373;28;20439;-72
2022/05/29 05:36:54;;;;;;;1.50;1.13;;;;;;;11.92;86.08;100664.94;5053432;28;20481;-69
2022/05/29 05:39:21;;;;;;;5.90;1.60;;;;;;;11.96;85.83;100658.56;5053397;28;20859;-69
2022/05/29 05:41:47;;;;;;;1.00;0.83;;;;;;;11.86;86.23;100658.78;5053293;28;20442;-71
2022/05/29 05:44:14;;;;;;;2.23;1.13;;;;;;;11.96;86.79;100663.19;5053247;28;20474;-74
2022/05/29 05:46:53;;;;;;;1.80;1.20;;;;;;;12.11;86.11;100658.19;5053140;28;20504;-71
2022/05/29 05:49:21;;;;;;;2.60;1.20;;;;;;;12.23;84.70;100654.91;5052780;28;20466;-72
2022/05/29 05:51:48;;;;;;;6.37;1.90;;;;;;;12.22;84.39;100653.31;5052848;28;20461;-71
2022/05/29 05:54:15;;;;;;;2.07;1.50;;;;;;;12.25;84.48;100651.88;5053169;28;20446;-73
2022/05/29 05:56:42;;;;;;;4.30;1.50;;;;;;;12.35;84.86;100659.75;5052737;28;20458;-68
2022/05/29 05:59:10;;;;;;;1.50;1.10;;;;;;;12.41;83.27;100650.38;5052869;28;20963;-74
2022/05/29 06:01:36;;;;;;;14.30;2.13;;;;;;;12.31;83.49;100659.59;5053131;28;20500;-74
2022/05/29 06:04:04;;;;;;;2.20;1.53;;;;;;;12.37;83.42;100662.97;5052997;28;20485;-73
2022/05/29 06:06:31;;;;;;;3.27;1.63;;;;;;;12.33;84.39;100657.38;5053012;28;20450;-74
2022/05/29 06:08:58;;;;;;;1.53;0.97;;;;;;;12.49;84.33;100665.13;5053060;28;20456;-74
2022/05/29 06:11:24;;;;;;;2.10;1.20;;;;;;;12.67;84.20;100661.38;5053024;28;20442;-74
2022/05/29 06:13:51;;;;;;;2.10;1.23;;;;;;;12.73;82.66;100665.56;5052979;28;20449;-74
2022/05/29 06:16:17;;;;;;;5.80;1.13;;;;;;;12.76;82.46;100666.84;5052907;28;20473;-74
2022/05/29 06:18:44;;;;;;;2.13;1.23;;;;;;;12.73;82.01;100660.13;5052962;28;20446;-74
2022/05/29 06:21:12;;;;;;;3.20;1.33;;;;;;;12.69;82.38;100663.78;5052799;28;20438;-74
2022/05/29 06:23:40;;;;;;;3.07;1.80;;;;;;;12.72;82.38;100663.16;5054017;28;20808;-74
2022/05/29 06:26:08;;;;;;;2.63;0.90;;;;;;;12.77;81.24;100665.72;5056768;28;20482;-73
2022/05/29 06:28:35;;;;;;;2.60;1.23;;;;;;;12.83;80.69;100664.47;5056602;28;20434;-73
2022/05/29 06:31:03;;;;;;;1.93;1.17;;;;;;;12.86;80.58;100664.66;5056844;28;20442;-73
2022/05/29 06:33:30;;;;;;;3.60;1.20;;;;;;;12.79;80.00;100667.03;5056783;28;20790;-73
2022/05/29 06:36:06;;;;;;;5.60;1.73;;;;;;;12.88;79.81;100667.88;5056632;28;20473;-74
2022/05/29 06:38:34;;;;;;;6.00;1.90;;;;;;;12.96;79.95;100673.63;5056410;28;20914;-71
2022/05/29 06:41:01;;;;;;;4.33;1.57;;;;;;;12.93;80.24;100666.94;5057030;28;20434;-70
2022/05/29 06:43:27;;;;;;;6.53;1.90;;;;;;;12.68;79.27;100671.13;5056636;28;20442;-72
2022/05/29 06:45:57;;;;;;;1.33;1.20;;;;;;;12.74;78.53;100661.72;5056383;28;20508;-71
2022/05/29 06:48:23;;;;;;;6.30;1.10;;;;;;;12.85;78.47;100660.34;5056553;28;20492;-72
2022/05/29 06:50:50;;;;;;;2.97;1.93;;;;;;;13.06;77.05;100665.22;5056187;28;20462;-72
2022/05/29 06:53:16;;;;;;;2.10;1.10;;;;;;;13.06;75.85;100667.94;5056390;28;20450;-71
2022/05/29 06:55:52;;;;;;;2.60;1.30;;;;;;;13.14;77.14;100670.66;5055995;28;20454;-72
2022/05/29 06:58:18;;;;;;;12.77;0.97;;;;;;;13.26;76.55;100663.84;5056316;28;20425;-72
2022/05/29 07:08:57;;;;;;;2.80;1.10;;;;;;;13.68;74.28;100673.19;5056047;28;20502;-69
2022/05/29 07:11:30;;;;;;;2.03;0.77;;;;;;;13.60;74.05;100661.16;5056150;28;20452;-69
2022/05/29 07:13:57;;;;;;;3.30;1.00;;;;;;;13.50;75.86;100660.66;5056079;28;20898;-69
2022/05/29 07:16:24;;;;;;;4.70;1.13;;;;;;;13.50;74.65;100666.09;5056038;28;20875;-72
2022/05/29 07:18:50;;;;;;;1.77;0.93;;;;;;;13.47;73.62;100666.75;5055912;28;20458;-71
2022/05/29 07:21:17;;;;;;;1.37;0.70;;;;;;;13.56;72.39;100673.00;5055654;28;20936;-70
2022/05/29 07:23:45;;;;;;;1.10;0.67;;;;;;;13.61;73.03;100661.97;5055592;28;20997;-69
2022/05/29 07:26:12;;;;;;;1.20;0.80;;;;;;;13.75;72.88;100670.78;5049067;28;20494;-71
2022/05/29 07:28:40;;;;;;;4.80;1.10;;;;;;;13.84;72.73;100668.84;5042048;28;20443;-70
2022/05/29 07:31:06;;;;;;;1.40;1.00;;;;;;;14.00;72.53;100673.81;5035778;28;20451;-70
2022/05/29 07:33:33;;;;;;;2.63;1.00;;;;;;;14.11;73.01;100675.88;5035738;28;20439;-70
2022/05/29 07:36:00;;;;;;;2.27;1.10;;;;;;;14.27;73.60;100681.63;5035166;28;20459;-70
2022/05/29 07:38:27;;;;;;;1.27;0.93;;;;;;;14.29;71.31;100679.38;5035724;28;20467;-70
2022/05/29 07:40:54;;;;;;;2.93;1.23;;;;;;;14.30;70.24;100683.72;5035636;28;20517;-70
2022/05/29 07:43:19;;;;;;;3.87;0.97;;;;;;;14.37;70.97;100672.31;5035599;28;20435;-69
2022/05/29 07:45:48;;;;;;;1.30;0.93;;;;;;;14.43;70.68;100667.47;5035409;28;20493;-69
2022/05/29 07:48:14;;;;;;;5.30;1.40;;;;;;;14.56;70.94;100669.25;5035496;28;20263;-70
2022/05/29 07:50:41;;;;;;;3.47;1.30;;;;;;;14.48;68.28;100670.88;5035217;28;20819;-70
2022/05/29 07:53:08;;;;;;;3.63;1.30;;;;;;;14.58;69.11;100683.38;5035392;28;20458;-70
2022/05/29 07:55:35;;;;;;;3.23;1.23;;;;;;;14.64;69.57;100676.59;5035321;28;20459;-70
2022/05/29 07:58:02;;;;;;;2.07;1.10;;;;;;;14.65;68.92;100683.63;5034953;28;20443;-73
2022/05/29 08:00:28;;;;;;;1.90;0.90;;;;;;;14.74;67.71;100669.97;5035114;28;20494;-68
2022/05/29 08:02:56;;;;;;;2.30;1.43;;;;;;;14.72;66.95;100674.97;5035223;28;20501;-74
2022/05/29 08:05:24;;;;;;;1.70;1.23;;;;;;;14.66;67.62;100677.09;5035167;28;20609;-73
2022/05/29 08:07:52;;;;;;;3.17;0.77;;;;;;;14.66;69.28;100677.09;5035125;28;20450;-73
2022/05/29 08:10:21;;;;;;;7.30;1.20;;;;;;;14.61;71.10;100680.78;5035175;28;20449;-74
2022/05/29 08:12:49;;;;;;;1.63;0.90;;;;;;;14.59;69.21;100682.22;5034985;28;20439;-72
2022/05/29 08:15:15;;;;;;;1.53;1.17;;;;;;;14.44;70.69;100677.28;5037315;28;20463;-72
2022/05/29 08:17:42;;;;;;;2.87;1.10;;;;;;;14.38;69.34;100682.09;5043866;28;20431;-72
2022/05/29 08:20:12;;;;;;;3.43;1.40;;;;;;;14.20;71.61;100681.31;5054821;28;20442;-72
2022/05/29 08:22:38;;;;;;;1.00;0.80;;;;;;;14.29;72.06;100678.59;5054844;28;20495;-72
2022/05/29 08:30:42;;;;;;;1.63;0.80;;;;;;;14.36;71.10;100676.16;5039349;28;20489;-72
2022/05/29 08:33:10;;;;;;;1.97;1.07;;;;;;;14.35;68.84;100682.75;5034666;28;20472;-72
2022/05/29 08:35:39;;;;;;;1.80;1.00;;;;;;;14.42;67.69;100671.34;5034530;28;20491;-72
2022/05/29 08:38:07;;;;;;;1.30;0.90;;;;;;;14.41;68.30;100667.03;5034193;28;20825;-72
2022/05/29 08:40:41;;;;;;;1.20;0.63;;;;;;;14.42;70.87;100669.41;5034491;28;20451;-72
2022/05/29 08:43:11;;;;;;;2.17;1.20;;;;;;;14.49;66.75;100674.41;5034514;28;20481;-73
2022/05/29 08:45:39;;;;;;;1.77;0.70;;;;;;;14.49;68.11;100674.41;5033830;28;20483;-72
2022/05/29 08:48:06;;;;;;;1.80;0.97;;;;;;;14.61;68.83;100674.53;5035318;28;20447;-72
2022/05/29 08:50:40;;;;;;;1.43;0.90;;;;;;;14.94;66.07;100668.47;5034126;28;20463;-72
2022/05/29 08:53:16;;;;;;;1.87;1.20;;;;;;;15.30;64.43;100670.69;5034309;28;20558;-71
2022/05/29 08:55:49;;;;;;;1.20;0.80;;;;;;;15.53;64.26;100671.16;5041445;28;20454;-73
2022/05/29 08:58:23;;;;;;;3.17;1.40;;;;;;;15.46;62.10;100674.44;5041362;28;20491;-72
2022/05/29 09:00:56;;;;;;;3.53;1.20;;;;;;;15.32;63.27;100668.44;5041052;28;20990;-72
2022/05/29 09:03:36;;;;;;;2.13;0.93;;;;;;;14.99;66.35;100676.47;5042256;28;20434;-72
2022/05/29 09:06:06;;;;;;;1.13;0.80;;;;;;;14.76;66.82;100676.72;5042229;28;20493;-71
2022/05/29 09:08:38;;;;;;;0.83;0.60;;;;;;;14.51;68.77;100669.41;5037556;28;20446;-72
2022/05/29 09:11:09;;;;;;;2.63;0.87;;;;;;;14.36;71.12;100668.78;5041289;28;20454;-71
2022/05/29 09:13:41;;;;;;;1.90;1.10;;;;;;;14.32;72.24;100664.31;5042278;28;20432;-72
2022/05/29 09:16:11;;;;;;;1.60;0.90;;;;;;;14.10;76.04;100668.03;5041340;28;20482;-70
2022/05/29 09:18:41;;;;;;;3.93;1.00;;;;;;;13.97;79.90;100674.47;5041212;28;20426;-74
2022/05/29 09:21:14;;;;;;;3.27;1.50;;;;;;;13.68;83.12;100677.81;5041618;28;20454;-72
2022/05/29 09:24:03;;;;;;;1.40;0.87;;;;;;;13.29;86.54;100684.97;5041441;28;20435;-73
2022/05/29 09:26:35;;;;;;;3.20;1.10;;;;;;;13.10;88.88;100674.31;5043203;28;20491;-72
2022/05/29 09:29:02;;;;;;;1.70;0.93;;;;;;;12.97;90.27;100675.22;5042136;28;20427;-73
2022/05/29 09:31:30;;;;;;;4.33;1.60;;;;;;;12.83;91.57;100676.13;5041166;28;20465;-73
2022/05/29 09:33:57;;;;;;;1.10;0.80;;;;;;;12.83;93.76;100676.13;5042620;28;20435;-73
2022/05/29 09:36:29;;;;;;;2.40;1.33;;;;;;;12.90;94.18;100672.19;5042269;28;20455;-73
2022/05/29 09:39:02;;;;;;;1.10;0.73;;;;;;;12.99;91.39;100673.81;5041338;28;20462;-73
2022/05/29 09:41:34;;;;;;;1.30;0.97;;;;;;;13.09;88.71;100664.56;5041216;28;20435;-74
2022/05/29 09:44:13;;;;;;;1.13;0.73;;;;;;;13.21;86.78;100670.19;5041972;28;20438;-73
2022/05/29 09:46:41;;;;;;;1.93;1.20;;;;;;;13.41;87.07;100657.94;5041540;28;20493;-74
2022/05/29 09:52:04;;;;;;;3.03;0.80;;;;;;;13.95;78.71;100661.19;5041235;28;20516;-70
2022/05/29 09:54:35;;;;;;;3.20;0.70;;;;;;;14.04;74.66;100666.63;5036137;28;20435;-72
2022/05/29 09:57:11;;;;;;;1.20;1.00;;;;;;;14.10;74.26;100659.88;5033381;28;20431;-73
2022/05/29 09:59:40;;;;;;;1.40;0.80;;;;;;;14.36;72.41;100665.28;5047243;28;20434;-74
2022/05/29 10:02:07;;;;;;;2.77;1.27;;;;;;;14.57;73.95;100670.88;5033068;28;20450;-73
2022/05/29 10:04:37;;;;;;;1.47;1.23;;;;;;;14.59;70.20;100669.41;5033179;28;20482;-73
2022/05/29 10:07:15;;;;;;;2.50;1.17;;;;;;;14.53;70.01;100672.63;5032991;28;20957;-73
2022/05/29 10:10:00;;;;;;;1.37;0.50;;;;;;;14.53;70.36;100678.09;5033192;28;20431;-73
2022/05/29 10:12:39;;;;;;;6.23;0.60;;;;;;;14.69;73.26;100668.22;5033107;28;20443;-73
2022/05/29 10:15:12;;;;;;;3.73;0.80;;;;;;;15.09;64.52;100659.72;5032705;28;20992;-74
2022/05/29 10:17:40;;;;;;;1.20;0.77;;;;;;;15.32;64.15;100663.75;5033154;28;20427;-72
2022/05/29 10:20:27;;;;;;;0.90;0.63;;;;;;;15.38;66.17;100678.00;5033005;28;20439;-72
2022/05/29 10:22:55;;;;;;;1.60;0.90;;;;;;;15.28;67.89;100684.66;5032938;28;20428;-73
2022/05/29 10:25:26;;;;;;;0.80;0.47;;;;;;;15.14;71.63;100684.91;5032872;28;20528;-72
2022/05/29 10:27:55;;;;;;;1.40;0.60;;;;;;;14.88;69.83;100681.50;5035296;28;20958;-73
2022/05/29 10:30:32;;;;;;;1.00;0.50;;;;;;;14.57;70.95;100682.56;5043024;28;20446;-73
2022/05/29 10:33:07;;;;;;;1.13;0.70;;;;;;;14.25;72.81;100677.63;5042924;28;20439;-72
2022/05/29 10:35:36;;;;;;;0.90;0.50;;;;;;;13.83;76.60;100671.91;5038149;28;20466;-71
2022/05/29 10:38:24;;;;;;;1.10;0.60;;;;;;;13.62;78.55;100669.81;5032877;28;20812;-73
2022/05/29 10:40:53;;;;;;;1.13;0.60;;;;;;;13.45;81.62;100663.53;5032956;28;20427;-72
2022/05/29 10:43:41;;;;;;;1.07;0.63;;;;;;;13.57;82.22;100666.44;5040781;28;20435;-72
2022/05/29 10:46:15;;;;;;;2.50;0.57;;;;;;;13.68;81.80;100672.38;5040874;28;20862;-72
2022/05/29 10:48:59;;;;;;;1.60;0.90;;;;;;;13.77;82.98;100675.91;5042906;28;20427;-72
2022/05/29 10:51:34;;;;;;;0.70;0.40;;;;;;;13.84;81.98;100677.03;5052671;28;20458;-72
2022/05/29 10:54:18;;;;;;;1.27;0.70;;;;;;;13.74;79.84;100676.56;5039415;28;20467;-73
2022/05/29 10:57:07;;;;;;;2.53;1.23;;;;;;;13.50;79.78;100671.56;5040759;28;20431;-72
2022/05/29 10:59:57;;;;;;;1.50;0.90;;;;;;;13.31;83.92;100669.13;5034397;28;20445;-73
2022/05/29 11:05:36;;;;;;;1.73;0.87;;;;;;;13.32;83.13;100665.28;5032763;28;20485;-72
2022/05/29 11:08:20;;;;;;;1.10;0.83;;;;;;;13.40;83.21;100671.88;5032628;28;20546;-73
2022/05/29 11:10:59;;;;;;;2.80;1.03;;;;;;;13.42;83.48;100661.47;5035343;28;20431;-73
2022/05/29 11:13:47;;;;;;;2.80;0.97;;;;;;;13.42;85.02;100658.75;5036571;28;20431;-73
2022/05/29 11:16:21;;;;;;;3.90;1.27;;;;;;;13.53;81.81;100657.31;5035944;28;20510;-73
2022/05/29 11:19:07;;;;;;;2.60;1.10;;;;;;;13.70;81.99;100661.97;5035900;28;20908;-73
2022/05/29 11:21:46;;;;;;;4.17;1.30;;;;;;;13.96;83.15;100659.25;5036036;28;20478;-72
2022/05/29 11:24:28;;;;;;;1.97;1.10;;;;;;;14.19;79.36;100649.75;5036023;28;20446;-71
2022/05/29 11:27:03;;;;;;;2.87;1.30;;;;;;;14.46;79.17;100654.00;5035628;28;20477;-72
2022/05/29 11:29:45;;;;;;;1.30;0.60;;;;;;;14.92;79.42;100654.34;5035776;28;20422;-72
2022/05/29 11:32:23;;;;;;;0.90;0.70;;;;;;;15.25;75.31;100654.50;5038493;28;20442;-73
2022/05/29 11:35:01;;;;;;;1.30;0.83;;;;;;;15.54;74.82;100648.22;5038192;28;20542;-72
2022/05/29 11:37:44;;;;;;;2.07;0.90;;;;;;;15.81;72.37;100650.41;5034485;28;20427;-73
2022/05/29 11:40:17;;;;;;;3.53;1.47;;;;;;;16.21;70.96;100649.88;5035562;28;20493;-72
2022/05/29 11:42:50;;;;;;;1.37;1.00;;;;;;;16.44;64.39;100641.28;5035586;28;20468;-73
2022/05/29 11:51:06;;;;;;;6.50;1.17;;;;;;;16.60;66.61;100634.81;5035545;28;20481;-73
2022/05/29 11:51:08;;;;;;;1.33;1.00;;;;;;;16.49;66.62;100630.13;5035272;28;20990;-72
2022/05/29 11:53:40;;;;;;;1.00;0.70;;;;;;;16.39;64.02;100636.84;5035575;28;20439;-71
2022/05/29 11:56:11;;;;;;;1.70;1.00;;;;;;;16.76;64.49;100636.91;5050745;28;20497;-76
2022/05/29 11:58:43;;;;;;;1.97;1.20;;;;;;;17.35;61.18;100637.22;5055258;28;20426;-73
2022/05/29 12:01:16;;;;;;;2.67;1.00;;;;;;;17.86;59.34;100626.56;5054934;28;20912;-75
2022/05/29 12:03:48;;;;;;;1.97;0.80;;;;;;;18.13;58.47;100632.38;5055231;28;20444;-74
2022/05/29 12:06:22;;;;;;;1.33;1.00;;;;;;;17.72;59.18;100628.09;5055000;28;20486;-75
2022/05/29 12:08:57;;;;;;;1.07;0.80;;;;;;;17.14;61.69;100623.66;5054794;28;20900;-74
2022/05/29 12:11:34;;;;;;;1.30;0.90;;;;;;;16.72;61.73;100631.31;5055115;28;20422;-73
2022/05/29 12:14:08;;;;;;;1.00;0.70;;;;;;;16.34;64.29;100629.66;5055123;28;20458;-75